sensor_id;sensor_type;location;lat;lon;timestamp;P1;durP1;ratioP1;P2;durP2;ratioP2
12968;SDS011;6549;53.128;8.182;2023-02-28T00:01:41;9.02;;;5.90;;
12968;SDS011;6549;53.128;8.182;2023-02-28T00:04:42;10.07;;;6.50;;
12968;SDS011;6549;53.128;8.182;2023-02-28T00:07:42;10.15;;;6.28;;
12968;SDS011;6549;53.128;8.182;2023-02-28T00:10:43;11.02;;;6.38;;
12968;SDS011;6549;53.128;8.182;2023-02-28T00:13:44;11.30;;;6.40;;
12968;SDS011;6549;53.128;8.182;2023-02-28T00:16:46;10.02;;;6.25;;
12968;SDS011;6549;53.128;8.182;2023-02-28T00:19:50;9.50;;;5.60;;
12968;SDS011;6549;53.128;8.182;2023-02-28T00:22:51;15.43;;;9.70;;
12968;SDS011;6549;53.128;8.182;2023-02-28T00:25:52;13.98;;;8.60;;
12968;SDS011;6549;53.128;8.182;2023-02-28T00:28:53;13.07;;;7.45;;
12968;SDS011;6549;53.128;8.182;2023-02-28T00:31:53;11.52;;;7.22;;
12968;SDS011;6549;53.128;8.182;2023-02-28T00:34:54;10.75;;;6.82;;
12968;SDS011;6549;53.128;8.182;2023-02-28T00:37:54;14.77;;;7.88;;
12968;SDS011;6549;53.128;8.182;2023-02-28T00:40:54;10.10;;;6.15;;
12968;SDS011;6549;53.128;8.182;2023-02-28T00:43:54;10.50;;;5.97;;
12968;SDS011;6549;53.128;8.182;2023-02-28T00:46:55;11.00;;;6.32;;
12968;SDS011;6549;53.128;8.182;2023-02-28T00:49:56;10.02;;;5.90;;
12968;SDS011;6549;53.128;8.182;2023-02-28T00:52:56;14.18;;;8.52;;
12968;SDS011;6549;53.128;8.182;2023-02-28T00:55:57;10.90;;;6.90;;
12968;SDS011;6549;53.128;8.182;2023-02-28T00:58:57;10.90;;;7.28;;
12968;SDS011;6549;53.128;8.182;2023-02-28T01:01:57;9.60;;;6.18;;
12968;SDS011;6549;53.128;8.182;2023-02-28T01:04:58;10.38;;;6.55;;
12968;SDS011;6549;53.128;8.182;2023-02-28T01:07:58;11.52;;;6.60;;
12968;SDS011;6549;53.128;8.182;2023-02-28T01:11:06;13.82;;;8.48;;
12968;SDS011;6549;53.128;8.182;2023-02-28T01:14:08;14.80;;;9.13;;
12968;SDS011;6549;53.128;8.182;2023-02-28T01:17:08;13.50;;;8.18;;
12968;SDS011;6549;53.128;8.182;2023-02-28T01:20:09;12.57;;;7.25;;
12968;SDS011;6549;53.128;8.182;2023-02-28T01:23:10;13.30;;;8.30;;
12968;SDS011;6549;53.128;8.182;2023-02-28T01:26:12;10.23;;;7.05;;
12968;SDS011;6549;53.128;8.182;2023-02-28T01:29:15;10.50;;;6.85;;
12968;SDS011;6549;53.128;8.182;2023-02-28T01:32:15;9.80;;;6.70;;
12968;SDS011;6549;53.128;8.182;2023-02-28T01:35:15;8.48;;;6.10;;
12968;SDS011;6549;53.128;8.182;2023-02-28T01:38:16;8.75;;;5.85;;
12968;SDS011;6549;53.128;8.182;2023-02-28T01:41:18;9.30;;;6.03;;
12968;SDS011;6549;53.128;8.182;2023-02-28T01:47:55;13.60;;;7.40;;
12968;SDS011;6549;53.128;8.182;2023-02-28T01:51:04;11.45;;;6.25;;
12968;SDS011;6549;53.128;8.182;2023-02-28T01:54:09;10.68;;;5.63;;
12968;SDS011;6549;53.128;8.182;2023-02-28T01:57:14;10.55;;;6.03;;
12968;SDS011;6549;53.128;8.182;2023-02-28T02:00:17;9.65;;;6.13;;
12968;SDS011;6549;53.128;8.182;2023-02-28T02:03:20;9.27;;;5.88;;
12968;SDS011;6549;53.128;8.182;2023-02-28T02:06:54;9.75;;;6.55;;
12968;SDS011;6549;53.128;8.182;2023-02-28T02:09:47;9.55;;;6.13;;
12968;SDS011;6549;53.128;8.182;2023-02-28T02:25:49;8.30;;;5.13;;
12968;SDS011;6549;53.128;8.182;2023-02-28T02:32:38;10.23;;;5.88;;
12968;SDS011;6549;53.128;8.182;2023-02-28T02:42:05;10.07;;;6.50;;
12968;SDS011;6549;53.128;8.182;2023-02-28T02:48:29;12.98;;;8.30;;
12968;SDS011;6549;53.128;8.182;2023-02-28T02:51:33;12.88;;;7.60;;
12968;SDS011;6549;53.128;8.182;2023-02-28T02:54:35;11.83;;;7.17;;
12968;SDS011;6549;53.128;8.182;2023-02-28T02:58:20;11.25;;;7.15;;
12968;SDS011;6549;53.128;8.182;2023-02-28T03:01:08;10.50;;;6.82;;
12968;SDS011;6549;53.128;8.182;2023-02-28T03:04:13;10.35;;;6.30;;
12968;SDS011;6549;53.128;8.182;2023-02-28T03:07:18;10.73;;;6.45;;
12968;SDS011;6549;53.128;8.182;2023-02-28T03:10:37;9.40;;;6.10;;
12968;SDS011;6549;53.128;8.182;2023-02-28T03:13:46;9.18;;;5.40;;
12968;SDS011;6549;53.128;8.182;2023-02-28T03:24:04;10.05;;;6.32;;
12968;SDS011;6549;53.128;8.182;2023-02-28T03:31:10;8.30;;;5.80;;
12968;SDS011;6549;53.128;8.182;2023-02-28T03:34:22;10.38;;;6.78;;
12968;SDS011;6549;53.128;8.182;2023-02-28T03:37:27;8.80;;;5.97;;
12968;SDS011;6549;53.128;8.182;2023-02-28T03:40:32;9.77;;;6.30;;
12968;SDS011;6549;53.128;8.182;2023-02-28T03:43:36;10.52;;;6.55;;
12968;SDS011;6549;53.128;8.182;2023-02-28T03:46:42;12.40;;;6.60;;
12968;SDS011;6549;53.128;8.182;2023-02-28T03:49:58;12.98;;;8.02;;
12968;SDS011;6549;53.128;8.182;2023-02-28T03:56:26;11.60;;;7.07;;
12968;SDS011;6549;53.128;8.182;2023-02-28T03:59:40;10.20;;;6.50;;
12968;SDS011;6549;53.128;8.182;2023-02-28T04:02:44;12.45;;;7.68;;
12968;SDS011;6549;53.128;8.182;2023-02-28T04:05:52;13.65;;;8.20;;
12968;SDS011;6549;53.128;8.182;2023-02-28T04:08:54;15.13;;;8.68;;
12968;SDS011;6549;53.128;8.182;2023-02-28T04:11:55;12.18;;;8.13;;
12968;SDS011;6549;53.128;8.182;2023-02-28T04:14:56;10.95;;;7.50;;
12968;SDS011;6549;53.128;8.182;2023-02-28T04:17:56;11.95;;;7.22;;
12968;SDS011;6549;53.128;8.182;2023-02-28T04:20:59;11.20;;;6.60;;
12968;SDS011;6549;53.128;8.182;2023-02-28T04:24:00;10.25;;;6.55;;
12968;SDS011;6549;53.128;8.182;2023-02-28T04:27:01;16.40;;;8.75;;
12968;SDS011;6549;53.128;8.182;2023-02-28T04:30:02;13.32;;;7.50;;
12968;SDS011;6549;53.128;8.182;2023-02-28T04:33:03;15.55;;;9.00;;
12968;SDS011;6549;53.128;8.182;2023-02-28T04:36:04;12.13;;;7.70;;
12968;SDS011;6549;53.128;8.182;2023-02-28T04:39:07;12.43;;;8.10;;
12968;SDS011;6549;53.128;8.182;2023-02-28T04:42:09;12.43;;;7.70;;
12968;SDS011;6549;53.128;8.182;2023-02-28T04:45:10;10.48;;;6.78;;
12968;SDS011;6549;53.128;8.182;2023-02-28T04:48:11;10.93;;;6.50;;
12968;SDS011;6549;53.128;8.182;2023-02-28T04:51:12;8.77;;;6.13;;
12968;SDS011;6549;53.128;8.182;2023-02-28T04:54:13;10.63;;;6.32;;
12968;SDS011;6549;53.128;8.182;2023-02-28T04:57:15;8.80;;;6.03;;
12968;SDS011;6549;53.128;8.182;2023-02-28T05:00:16;10.70;;;6.07;;
12968;SDS011;6549;53.128;8.182;2023-02-28T05:03:16;10.20;;;6.45;;
12968;SDS011;6549;53.128;8.182;2023-02-28T05:06:17;11.48;;;6.47;;
12968;SDS011;6549;53.128;8.182;2023-02-28T05:09:18;10.77;;;6.90;;
12968;SDS011;6549;53.128;8.182;2023-02-28T05:12:19;11.27;;;6.90;;
12968;SDS011;6549;53.128;8.182;2023-02-28T05:15:20;12.57;;;8.10;;
12968;SDS011;6549;53.128;8.182;2023-02-28T05:18:20;11.27;;;7.55;;
12968;SDS011;6549;53.128;8.182;2023-02-28T05:24:26;9.98;;;6.78;;
12968;SDS011;6549;53.128;8.182;2023-02-28T05:27:26;14.80;;;8.75;;
12968;SDS011;6549;53.128;8.182;2023-02-28T05:30:28;13.32;;;8.43;;
12968;SDS011;6549;53.128;8.182;2023-02-28T05:33:28;13.05;;;7.53;;
12968;SDS011;6549;53.128;8.182;2023-02-28T05:36:28;10.98;;;7.30;;
12968;SDS011;6549;53.128;8.182;2023-02-28T05:39:29;12.98;;;8.07;;
12968;SDS011;6549;53.128;8.182;2023-02-28T05:42:29;15.60;;;8.65;;
12968;SDS011;6549;53.128;8.182;2023-02-28T05:45:29;13.00;;;8.90;;
12968;SDS011;6549;53.128;8.182;2023-02-28T05:48:30;12.32;;;8.07;;
12968;SDS011;6549;53.128;8.182;2023-02-28T05:51:30;11.82;;;8.35;;
12968;SDS011;6549;53.128;8.182;2023-02-28T05:54:30;14.15;;;8.05;;
12968;SDS011;6549;53.128;8.182;2023-02-28T05:57:31;13.80;;;7.55;;
12968;SDS011;6549;53.128;8.182;2023-02-28T06:00:31;11.27;;;7.55;;
12968;SDS011;6549;53.128;8.182;2023-02-28T06:03:31;9.40;;;6.57;;
12968;SDS011;6549;53.128;8.182;2023-02-28T06:06:32;12.07;;;8.20;;
12968;SDS011;6549;53.128;8.182;2023-02-28T06:09:34;8.20;;;5.95;;
12968;SDS011;6549;53.128;8.182;2023-02-28T06:12:34;8.43;;;5.82;;
12968;SDS011;6549;53.128;8.182;2023-02-28T06:15:35;9.45;;;6.10;;
12968;SDS011;6549;53.128;8.182;2023-02-28T06:18:35;10.15;;;6.65;;
12968;SDS011;6549;53.128;8.182;2023-02-28T06:21:35;9.27;;;6.47;;
12968;SDS011;6549;53.128;8.182;2023-02-28T06:24:36;11.73;;;6.82;;
12968;SDS011;6549;53.128;8.182;2023-02-28T06:27:37;9.38;;;6.32;;
12968;SDS011;6549;53.128;8.182;2023-02-28T06:30:37;11.90;;;7.10;;
12968;SDS011;6549;53.128;8.182;2023-02-28T06:33:38;12.00;;;8.25;;
12968;SDS011;6549;53.128;8.182;2023-02-28T06:36:40;11.15;;;7.25;;
12968;SDS011;6549;53.128;8.182;2023-02-28T06:39:41;12.27;;;7.27;;
12968;SDS011;6549;53.128;8.182;2023-02-28T06:42:41;10.77;;;6.38;;
12968;SDS011;6549;53.128;8.182;2023-02-28T06:45:43;12.00;;;7.10;;
12968;SDS011;6549;53.128;8.182;2023-02-28T06:48:44;10.10;;;7.18;;
12968;SDS011;6549;53.128;8.182;2023-02-28T06:51:45;11.48;;;7.05;;
12968;SDS011;6549;53.128;8.182;2023-02-28T06:54:45;14.68;;;7.22;;
12968;SDS011;6549;53.128;8.182;2023-02-28T06:57:45;11.90;;;7.13;;
12968;SDS011;6549;53.128;8.182;2023-02-28T07:00:50;9.40;;;6.50;;
12968;SDS011;6549;53.128;8.182;2023-02-28T07:03:51;11.00;;;6.35;;
12968;SDS011;6549;53.128;8.182;2023-02-28T07:06:52;11.60;;;6.93;;
12968;SDS011;6549;53.128;8.182;2023-02-28T07:09:52;13.32;;;7.18;;
12968;SDS011;6549;53.128;8.182;2023-02-28T07:12:52;9.77;;;6.50;;
12968;SDS011;6549;53.128;8.182;2023-02-28T07:15:54;8.98;;;6.03;;
12968;SDS011;6549;53.128;8.182;2023-02-28T07:18:54;10.98;;;6.47;;
12968;SDS011;6549;53.128;8.182;2023-02-28T07:21:55;11.40;;;7.03;;
12968;SDS011;6549;53.128;8.182;2023-02-28T07:24:55;11.23;;;6.85;;
12968;SDS011;6549;53.128;8.182;2023-02-28T07:27:55;10.93;;;6.20;;
12968;SDS011;6549;53.128;8.182;2023-02-28T07:30:56;10.38;;;6.00;;
12968;SDS011;6549;53.128;8.182;2023-02-28T07:33:56;12.20;;;5.97;;
12968;SDS011;6549;53.128;8.182;2023-02-28T07:36:57;8.25;;;5.55;;
12968;SDS011;6549;53.128;8.182;2023-02-28T07:39:57;7.47;;;5.68;;
12968;SDS011;6549;53.128;8.182;2023-02-28T07:42:58;9.40;;;6.10;;
12968;SDS011;6549;53.128;8.182;2023-02-28T07:46:04;8.95;;;4.97;;
12968;SDS011;6549;53.128;8.182;2023-02-28T07:49:05;9.50;;;6.05;;
12968;SDS011;6549;53.128;8.182;2023-02-28T07:52:06;8.98;;;5.80;;
12968;SDS011;6549;53.128;8.182;2023-02-28T07:55:07;11.43;;;5.43;;
12968;SDS011;6549;53.128;8.182;2023-02-28T07:58:09;8.07;;;5.30;;
12968;SDS011;6549;53.128;8.182;2023-02-28T08:01:10;9.70;;;5.45;;
12968;SDS011;6549;53.128;8.182;2023-02-28T08:04:11;9.40;;;5.28;;
12968;SDS011;6549;53.128;8.182;2023-02-28T08:07:15;9.13;;;4.80;;
12968;SDS011;6549;53.128;8.182;2023-02-28T08:10:16;11.23;;;4.93;;
12968;SDS011;6549;53.128;8.182;2023-02-28T08:13:16;6.32;;;4.50;;
12968;SDS011;6549;53.128;8.182;2023-02-28T08:16:17;6.93;;;4.30;;
12968;SDS011;6549;53.128;8.182;2023-02-28T08:19:21;8.70;;;4.60;;
12968;SDS011;6549;53.128;8.182;2023-02-28T08:22:22;7.85;;;5.03;;
12968;SDS011;6549;53.128;8.182;2023-02-28T08:25:22;8.13;;;4.43;;
12968;SDS011;6549;53.128;8.182;2023-02-28T08:28:23;10.43;;;4.30;;
12968;SDS011;6549;53.128;8.182;2023-02-28T08:31:23;7.70;;;4.60;;
12968;SDS011;6549;53.128;8.182;2023-02-28T08:34:24;5.72;;;3.90;;
12968;SDS011;6549;53.128;8.182;2023-02-28T08:37:24;8.38;;;4.45;;
12968;SDS011;6549;53.128;8.182;2023-02-28T08:40:25;8.68;;;4.13;;
12968;SDS011;6549;53.128;8.182;2023-02-28T08:43:25;6.03;;;3.63;;
12968;SDS011;6549;53.128;8.182;2023-02-28T08:46:26;7.07;;;3.88;;
12968;SDS011;6549;53.128;8.182;2023-02-28T08:49:26;9.27;;;3.58;;
12968;SDS011;6549;53.128;8.182;2023-02-28T08:52:26;5.70;;;3.25;;
12968;SDS011;6549;53.128;8.182;2023-02-28T08:55:27;6.70;;;3.35;;
12968;SDS011;6549;53.128;8.182;2023-02-28T08:58:27;5.22;;;3.58;;
12968;SDS011;6549;53.128;8.182;2023-02-28T09:01:29;7.90;;;3.70;;
12968;SDS011;6549;53.128;8.182;2023-02-28T09:04:31;6.25;;;3.63;;
12968;SDS011;6549;53.128;8.182;2023-02-28T09:07:31;4.43;;;2.92;;
12968;SDS011;6549;53.128;8.182;2023-02-28T09:10:31;5.65;;;3.28;;
12968;SDS011;6549;53.128;8.182;2023-02-28T09:13:33;5.22;;;3.10;;
12968;SDS011;6549;53.128;8.182;2023-02-28T09:16:33;4.72;;;2.58;;
12968;SDS011;6549;53.128;8.182;2023-02-28T09:19:34;5.68;;;3.10;;
12968;SDS011;6549;53.128;8.182;2023-02-28T09:22:34;4.32;;;2.70;;
12968;SDS011;6549;53.128;8.182;2023-02-28T09:25:35;6.20;;;3.00;;
12968;SDS011;6549;53.128;8.182;2023-02-28T09:28:36;5.93;;;2.95;;
12968;SDS011;6549;53.128;8.182;2023-02-28T09:31:36;5.82;;;2.75;;
12968;SDS011;6549;53.128;8.182;2023-02-28T09:34:36;4.68;;;2.65;;
12968;SDS011;6549;53.128;8.182;2023-02-28T09:37:37;3.15;;;2.33;;
12968;SDS011;6549;53.128;8.182;2023-02-28T09:40:39;4.15;;;2.33;;
12968;SDS011;6549;53.128;8.182;2023-02-28T09:43:52;4.25;;;2.20;;
12968;SDS011;6549;53.128;8.182;2023-02-28T09:46:57;2.88;;;1.85;;
12968;SDS011;6549;53.128;8.182;2023-02-28T09:53:26;3.22;;;1.90;;
12968;SDS011;6549;53.128;8.182;2023-02-28T09:56:37;7.15;;;2.30;;
12968;SDS011;6549;53.128;8.182;2023-02-28T09:59:48;3.80;;;2.38;;
12968;SDS011;6549;53.128;8.182;2023-02-28T10:06:17;4.15;;;2.10;;
12968;SDS011;6549;53.128;8.182;2023-02-28T10:09:26;4.85;;;1.90;;
12968;SDS011;6549;53.128;8.182;2023-02-28T10:12:30;3.40;;;2.13;;
12968;SDS011;6549;53.128;8.182;2023-02-28T10:15:32;4.95;;;2.13;;
12968;SDS011;6549;53.128;8.182;2023-02-28T10:18:39;3.78;;;2.10;;
12968;SDS011;6549;53.128;8.182;2023-02-28T10:21:43;4.07;;;2.08;;
12968;SDS011;6549;53.128;8.182;2023-02-28T10:24:51;3.92;;;2.20;;
12968;SDS011;6549;53.128;8.182;2023-02-28T10:27:54;3.50;;;2.00;;
12968;SDS011;6549;53.128;8.182;2023-02-28T10:31:00;6.65;;;2.25;;
12968;SDS011;6549;53.128;8.182;2023-02-28T10:34:02;5.10;;;2.20;;
12968;SDS011;6549;53.128;8.182;2023-02-28T10:37:04;4.32;;;2.15;;
12968;SDS011;6549;53.128;8.182;2023-02-28T10:43:20;4.50;;;2.30;;
12968;SDS011;6549;53.128;8.182;2023-02-28T10:46:22;5.22;;;2.40;;
12968;SDS011;6549;53.128;8.182;2023-02-28T10:49:26;4.03;;;2.15;;
12968;SDS011;6549;53.128;8.182;2023-02-28T10:52:48;5.80;;;2.10;;
12968;SDS011;6549;53.128;8.182;2023-02-28T10:55:59;4.07;;;2.05;;
12968;SDS011;6549;53.128;8.182;2023-02-28T11:02:34;3.83;;;2.20;;
12968;SDS011;6549;53.128;8.182;2023-02-28T11:05:37;3.30;;;2.10;;
12968;SDS011;6549;53.128;8.182;2023-02-28T11:08:43;4.32;;;2.20;;
12968;SDS011;6549;53.128;8.182;2023-02-28T11:11:45;4.32;;;2.40;;
12968;SDS011;6549;53.128;8.182;2023-02-28T11:14:49;3.92;;;2.25;;
12968;SDS011;6549;53.128;8.182;2023-02-28T11:18:02;3.30;;;1.77;;
12968;SDS011;6549;53.128;8.182;2023-02-28T11:21:20;3.40;;;1.90;;
12968;SDS011;6549;53.128;8.182;2023-02-28T11:24:42;4.57;;;2.22;;
12968;SDS011;6549;53.128;8.182;2023-02-28T11:27:46;2.83;;;1.90;;
12968;SDS011;6549;53.128;8.182;2023-02-28T11:34:19;3.20;;;2.00;;
12968;SDS011;6549;53.128;8.182;2023-02-28T11:37:27;3.50;;;2.17;;
12968;SDS011;6549;53.128;8.182;2023-02-28T11:44:03;4.18;;;2.15;;
12968;SDS011;6549;53.128;8.182;2023-02-28T11:47:18;4.10;;;1.88;;
12968;SDS011;6549;53.128;8.182;2023-02-28T12:00:39;3.85;;;2.00;;
12968;SDS011;6549;53.128;8.182;2023-02-28T12:20:43;3.35;;;2.00;;
12968;SDS011;6549;53.128;8.182;2023-02-28T12:27:18;4.88;;;2.28;;
12968;SDS011;6549;53.128;8.182;2023-02-28T12:30:32;4.07;;;2.22;;
12968;SDS011;6549;53.128;8.182;2023-02-28T12:33:36;6.25;;;2.30;;
12968;SDS011;6549;53.128;8.182;2023-02-28T12:36:41;3.10;;;2.20;;
12968;SDS011;6549;53.128;8.182;2023-02-28T12:39:45;5.60;;;2.30;;
12968;SDS011;6549;53.128;8.182;2023-02-28T12:42:51;2.70;;;2.00;;
12968;SDS011;6549;53.128;8.182;2023-02-28T12:46:02;3.58;;;2.33;;
12968;SDS011;6549;53.128;8.182;2023-02-28T12:49:15;4.07;;;2.35;;
12968;SDS011;6549;53.128;8.182;2023-02-28T12:52:22;3.33;;;1.83;;
12968;SDS011;6549;53.128;8.182;2023-02-28T12:56:02;4.10;;;2.10;;
12968;SDS011;6549;53.128;8.182;2023-02-28T13:02:33;4.57;;;2.57;;
12968;SDS011;6549;53.128;8.182;2023-02-28T13:06:21;4.55;;;2.20;;
12968;SDS011;6549;53.128;8.182;2023-02-28T13:09:28;3.90;;;2.35;;
12968;SDS011;6549;53.128;8.182;2023-02-28T13:12:29;4.43;;;2.60;;
12968;SDS011;6549;53.128;8.182;2023-02-28T13:15:30;5.30;;;2.47;;
12968;SDS011;6549;53.128;8.182;2023-02-28T13:18:32;3.28;;;2.40;;
12968;SDS011;6549;53.128;8.182;2023-02-28T13:21:32;4.10;;;2.30;;
12968;SDS011;6549;53.128;8.182;2023-02-28T13:27:44;5.03;;;2.47;;
12968;SDS011;6549;53.128;8.182;2023-02-28T13:40:26;4.43;;;2.28;;
12968;SDS011;6549;53.128;8.182;2023-02-28T13:43:58;4.25;;;2.33;;
12968;SDS011;6549;53.128;8.182;2023-02-28T13:53:29;5.30;;;2.75;;
12968;SDS011;6549;53.128;8.182;2023-02-28T13:56:47;4.57;;;2.20;;
12968;SDS011;6549;53.128;8.182;2023-02-28T14:00:07;3.67;;;2.20;;
12968;SDS011;6549;53.128;8.182;2023-02-28T14:06:51;4.80;;;2.40;;
12968;SDS011;6549;53.128;8.182;2023-02-28T14:10:06;4.65;;;2.10;;
12968;SDS011;6549;53.128;8.182;2023-02-28T14:16:14;4.95;;;2.35;;
12968;SDS011;6549;53.128;8.182;2023-02-28T14:19:39;5.53;;;2.13;;
12968;SDS011;6549;53.128;8.182;2023-02-28T14:26:11;4.47;;;2.50;;
12968;SDS011;6549;53.128;8.182;2023-02-28T14:29:27;5.10;;;2.30;;
12968;SDS011;6549;53.128;8.182;2023-02-28T14:39:16;3.60;;;2.53;;
12968;SDS011;6549;53.128;8.182;2023-02-28T14:42:30;5.18;;;2.78;;
12968;SDS011;6549;53.128;8.182;2023-02-28T14:48:35;4.32;;;2.65;;
12968;SDS011;6549;53.128;8.182;2023-02-28T14:51:38;4.90;;;2.72;;
12968;SDS011;6549;53.128;8.182;2023-02-28T14:54:38;7.95;;;2.53;;
12968;SDS011;6549;53.128;8.182;2023-02-28T14:57:40;4.65;;;2.40;;
12968;SDS011;6549;53.128;8.182;2023-02-28T15:00:50;4.15;;;2.78;;
12968;SDS011;6549;53.128;8.182;2023-02-28T15:04:03;6.15;;;2.70;;
12968;SDS011;6549;53.128;8.182;2023-02-28T15:07:10;4.97;;;2.70;;
12968;SDS011;6549;53.128;8.182;2023-02-28T15:10:21;4.70;;;2.53;;
12968;SDS011;6549;53.128;8.182;2023-02-28T15:13:26;4.35;;;2.40;;
12968;SDS011;6549;53.128;8.182;2023-02-28T15:16:41;4.68;;;2.63;;
12968;SDS011;6549;53.128;8.182;2023-02-28T15:22:46;5.60;;;2.70;;
12968;SDS011;6549;53.128;8.182;2023-02-28T15:25:50;4.78;;;2.63;;
12968;SDS011;6549;53.128;8.182;2023-02-28T15:28:52;6.28;;;2.60;;
12968;SDS011;6549;53.128;8.182;2023-02-28T15:32:02;5.40;;;3.00;;
12968;SDS011;6549;53.128;8.182;2023-02-28T15:38:28;5.72;;;2.80;;
12968;SDS011;6549;53.128;8.182;2023-02-28T15:41:30;5.25;;;2.70;;
12968;SDS011;6549;53.128;8.182;2023-02-28T15:44:37;4.47;;;2.50;;
12968;SDS011;6549;53.128;8.182;2023-02-28T15:47:38;7.05;;;2.95;;
12968;SDS011;6549;53.128;8.182;2023-02-28T15:50:38;4.70;;;2.55;;
12968;SDS011;6549;53.128;8.182;2023-02-28T15:53:47;4.22;;;2.53;;
12968;SDS011;6549;53.128;8.182;2023-02-28T15:57:01;4.88;;;2.72;;
12968;SDS011;6549;53.128;8.182;2023-02-28T16:00:12;4.15;;;3.00;;
12968;SDS011;6549;53.128;8.182;2023-02-28T16:03:32;4.78;;;2.78;;
12968;SDS011;6549;53.128;8.182;2023-02-28T16:06:39;5.35;;;2.75;;
12968;SDS011;6549;53.128;8.182;2023-02-28T16:09:44;4.22;;;2.60;;
12968;SDS011;6549;53.128;8.182;2023-02-28T16:12:44;6.97;;;2.47;;
12968;SDS011;6549;53.128;8.182;2023-02-28T16:15:44;5.72;;;2.72;;
12968;SDS011;6549;53.128;8.182;2023-02-28T16:18:45;4.32;;;2.85;;
12968;SDS011;6549;53.128;8.182;2023-02-28T16:21:46;3.70;;;2.80;;
12968;SDS011;6549;53.128;8.182;2023-02-28T16:24:47;5.68;;;2.70;;
12968;SDS011;6549;53.128;8.182;2023-02-28T16:27:48;6.05;;;3.40;;
12968;SDS011;6549;53.128;8.182;2023-02-28T16:30:53;4.07;;;2.72;;
12968;SDS011;6549;53.128;8.182;2023-02-28T16:33:54;6.55;;;3.08;;
12968;SDS011;6549;53.128;8.182;2023-02-28T16:36:54;5.25;;;2.97;;
12968;SDS011;6549;53.128;8.182;2023-02-28T16:39:55;4.05;;;2.58;;
12968;SDS011;6549;53.128;8.182;2023-02-28T16:42:57;6.28;;;2.60;;
12968;SDS011;6549;53.128;8.182;2023-02-28T16:45:59;4.78;;;3.00;;
12968;SDS011;6549;53.128;8.182;2023-02-28T16:49:01;4.97;;;2.75;;
12968;SDS011;6549;53.128;8.182;2023-02-28T16:52:02;20.92;;;15.68;;
12968;SDS011;6549;53.128;8.182;2023-02-28T16:55:02;80.78;;;48.80;;
12968;SDS011;6549;53.128;8.182;2023-02-28T16:58:03;9.18;;;6.53;;
12968;SDS011;6549;53.128;8.182;2023-02-28T17:01:03;10.85;;;9.80;;
12968;SDS011;6549;53.128;8.182;2023-02-28T17:04:03;8.77;;;6.95;;
12968;SDS011;6549;53.128;8.182;2023-02-28T17:07:04;8.23;;;7.32;;
12968;SDS011;6549;53.128;8.182;2023-02-28T17:13:13;6.70;;;5.35;;
12968;SDS011;6549;53.128;8.182;2023-02-28T17:16:35;5.72;;;4.13;;
12968;SDS011;6549;53.128;8.182;2023-02-28T17:19:36;5.50;;;2.60;;
12968;SDS011;6549;53.128;8.182;2023-02-28T17:22:38;3.47;;;2.37;;
12968;SDS011;6549;53.128;8.182;2023-02-28T17:25:38;3.63;;;2.38;;
12968;SDS011;6549;53.128;8.182;2023-02-28T17:28:39;4.97;;;2.15;;
12968;SDS011;6549;53.128;8.182;2023-02-28T17:31:39;3.92;;;2.20;;
12968;SDS011;6549;53.128;8.182;2023-02-28T17:34:39;4.05;;;2.40;;
12968;SDS011;6549;53.128;8.182;2023-02-28T17:37:40;4.15;;;2.60;;
12968;SDS011;6549;53.128;8.182;2023-02-28T17:40:41;4.78;;;2.60;;
12968;SDS011;6549;53.128;8.182;2023-02-28T17:43:41;4.05;;;2.63;;
12968;SDS011;6549;53.128;8.182;2023-02-28T17:46:42;5.43;;;2.90;;
12968;SDS011;6549;53.128;8.182;2023-02-28T17:49:43;5.40;;;3.22;;
12968;SDS011;6549;53.128;8.182;2023-02-28T17:52:44;6.88;;;3.80;;
12968;SDS011;6549;53.128;8.182;2023-02-28T17:55:44;7.43;;;4.20;;
12968;SDS011;6549;53.128;8.182;2023-02-28T17:58:44;5.72;;;3.97;;
12968;SDS011;6549;53.128;8.182;2023-02-28T18:01:45;6.57;;;3.70;;
12968;SDS011;6549;53.128;8.182;2023-02-28T18:04:45;5.82;;;3.17;;
12968;SDS011;6549;53.128;8.182;2023-02-28T18:07:45;6.88;;;3.30;;
12968;SDS011;6549;53.128;8.182;2023-02-28T18:10:46;6.07;;;3.80;;
12968;SDS011;6549;53.128;8.182;2023-02-28T18:13:47;6.80;;;3.85;;
12968;SDS011;6549;53.128;8.182;2023-02-28T18:16:49;6.85;;;4.03;;
12968;SDS011;6549;53.128;8.182;2023-02-28T18:19:50;6.97;;;4.53;;
12968;SDS011;6549;53.128;8.182;2023-02-28T18:22:51;8.60;;;4.80;;
12968;SDS011;6549;53.128;8.182;2023-02-28T18:25:51;7.28;;;4.65;;
12968;SDS011;6549;53.128;8.182;2023-02-28T18:28:52;10.13;;;5.18;;
12968;SDS011;6549;53.128;8.182;2023-02-28T18:31:53;9.32;;;5.35;;
12968;SDS011;6549;53.128;8.182;2023-02-28T18:34:55;10.10;;;5.73;;
12968;SDS011;6549;53.128;8.182;2023-02-28T18:37:55;15.88;;;8.30;;
12968;SDS011;6549;53.128;8.182;2023-02-28T18:40:56;13.13;;;7.25;;
12968;SDS011;6549;53.128;8.182;2023-02-28T18:44:00;12.40;;;6.55;;
12968;SDS011;6549;53.128;8.182;2023-02-28T18:47:01;12.60;;;7.13;;
12968;SDS011;6549;53.128;8.182;2023-02-28T18:50:02;15.23;;;7.07;;
12968;SDS011;6549;53.128;8.182;2023-02-28T18:53:02;11.35;;;6.40;;
12968;SDS011;6549;53.128;8.182;2023-02-28T18:56:03;10.82;;;5.95;;
12968;SDS011;6549;53.128;8.182;2023-02-28T18:59:04;12.60;;;7.10;;
12968;SDS011;6549;53.128;8.182;2023-02-28T19:02:05;11.02;;;6.20;;
12968;SDS011;6549;53.128;8.182;2023-02-28T19:05:08;10.63;;;5.85;;
12968;SDS011;6549;53.128;8.182;2023-02-28T19:08:10;12.35;;;6.28;;
12968;SDS011;6549;53.128;8.182;2023-02-28T19:11:15;10.18;;;5.70;;
12968;SDS011;6549;53.128;8.182;2023-02-28T19:14:17;9.05;;;5.68;;
12968;SDS011;6549;53.128;8.182;2023-02-28T19:17:17;8.57;;;5.35;;
12968;SDS011;6549;53.128;8.182;2023-02-28T19:20:18;10.52;;;6.05;;
12968;SDS011;6549;53.128;8.182;2023-02-28T19:23:18;9.55;;;5.20;;
12968;SDS011;6549;53.128;8.182;2023-02-28T19:26:20;9.30;;;5.25;;
12968;SDS011;6549;53.128;8.182;2023-02-28T19:32:22;10.70;;;5.23;;
12968;SDS011;6549;53.128;8.182;2023-02-28T19:35:22;10.40;;;5.75;;
12968;SDS011;6549;53.128;8.182;2023-02-28T19:38:22;12.10;;;6.47;;
12968;SDS011;6549;53.128;8.182;2023-02-28T19:41:23;10.80;;;6.40;;
12968;SDS011;6549;53.128;8.182;2023-02-28T19:44:23;11.02;;;6.30;;
12968;SDS011;6549;53.128;8.182;2023-02-28T19:47:23;13.10;;;6.68;;
12968;SDS011;6549;53.128;8.182;2023-02-28T19:50:23;9.77;;;5.93;;
12968;SDS011;6549;53.128;8.182;2023-02-28T19:53:24;10.73;;;6.10;;
12968;SDS011;6549;53.128;8.182;2023-02-28T19:56:25;10.70;;;6.30;;
12968;SDS011;6549;53.128;8.182;2023-02-28T19:59:26;11.35;;;7.10;;
12968;SDS011;6549;53.128;8.182;2023-02-28T20:02:27;12.93;;;7.43;;
12968;SDS011;6549;53.128;8.182;2023-02-28T20:05:27;12.73;;;6.85;;
12968;SDS011;6549;53.128;8.182;2023-02-28T20:08:28;11.82;;;7.00;;
12968;SDS011;6549;53.128;8.182;2023-02-28T20:11:28;12.77;;;7.05;;
12968;SDS011;6549;53.128;8.182;2023-02-28T20:14:29;12.73;;;7.45;;
12968;SDS011;6549;53.128;8.182;2023-02-28T20:17:29;13.82;;;7.75;;
12968;SDS011;6549;53.128;8.182;2023-02-28T20:20:29;12.98;;;8.18;;
12968;SDS011;6549;53.128;8.182;2023-02-28T20:23:30;14.20;;;7.93;;
12968;SDS011;6549;53.128;8.182;2023-02-28T20:26:30;13.52;;;8.27;;
12968;SDS011;6549;53.128;8.182;2023-02-28T20:29:31;13.95;;;8.82;;
12968;SDS011;6549;53.128;8.182;2023-02-28T20:32:33;14.75;;;9.32;;
12968;SDS011;6549;53.128;8.182;2023-02-28T20:35:34;14.85;;;9.60;;
12968;SDS011;6549;53.128;8.182;2023-02-28T20:38:35;19.67;;;10.73;;
12968;SDS011;6549;53.128;8.182;2023-02-28T20:41:35;16.58;;;9.50;;
12968;SDS011;6549;53.128;8.182;2023-02-28T20:44:36;17.10;;;10.18;;
12968;SDS011;6549;53.128;8.182;2023-02-28T20:47:36;22.10;;;12.15;;
12968;SDS011;6549;53.128;8.182;2023-02-28T20:50:37;19.00;;;12.05;;
12968;SDS011;6549;53.128;8.182;2023-02-28T20:53:37;18.75;;;10.98;;
12968;SDS011;6549;53.128;8.182;2023-02-28T20:56:37;17.92;;;11.27;;
12968;SDS011;6549;53.128;8.182;2023-02-28T20:59:38;17.80;;;11.73;;
12968;SDS011;6549;53.128;8.182;2023-02-28T21:02:40;19.48;;;13.20;;
12968;SDS011;6549;53.128;8.182;2023-02-28T21:05:40;21.05;;;13.38;;
12968;SDS011;6549;53.128;8.182;2023-02-28T21:08:40;20.13;;;13.50;;